sensor_id;sensor_type;location;lat;lon;timestamp;temperature;humidity
5899;DHT22;2975;50.956;6.962;2022-09-09T00:04:30;18.40;99.90
5899;DHT22;2975;50.956;6.962;2022-09-09T00:07:18;18.40;99.90
5899;DHT22;2975;50.956;6.962;2022-09-09T00:09:58;18.40;99.90
5899;DHT22;2975;50.956;6.962;2022-09-09T00:12:34;18.30;99.90
5899;DHT22;2975;50.956;6.962;2022-09-09T00:15:12;18.30;99.90
5899;DHT22;2975;50.956;6.962;2022-09-09T00:21:01;18.10;99.90
5899;DHT22;2975;50.956;6.962;2022-09-09T00:23:35;18.00;99.90
5899;DHT22;2975;50.956;6.962;2022-09-09T00:28:34;18.00;99.90
5899;DHT22;2975;50.956;6.962;2022-09-09T00:31:23;18.00;99.90
5899;DHT22;2975;50.956;6.962;2022-09-09T00:33:50;18.00;99.90
5899;DHT22;2975;50.956;6.962;2022-09-09T00:36:21;17.90;99.90
5899;DHT22;2975;50.956;6.962;2022-09-09T00:38:52;18.00;99.90
5899;DHT22;2975;50.956;6.962;2022-09-09T00:42:23;17.90;99.90
5899;DHT22;2975;50.956;6.962;2022-09-09T00:44:30;18.00;99.90
5899;DHT22;2975;50.956;6.962;2022-09-09T00:47:48;18.00;99.90
5899;DHT22;2975;50.956;6.962;2022-09-09T00:50:01;18.00;99.90
5899;DHT22;2975;50.956;6.962;2022-09-09T00:52:40;18.00;99.90
5899;DHT22;2975;50.956;6.962;2022-09-09T00:55:15;18.00;99.90
5899;DHT22;2975;50.956;6.962;2022-09-09T00:57:42;18.00;99.90
5899;DHT22;2975;50.956;6.962;2022-09-09T01:05:43;18.10;99.90
5899;DHT22;2975;50.956;6.962;2022-09-09T01:11:32;18.00;99.90
5899;DHT22;2975;50.956;6.962;2022-09-09T01:16:58;18.00;99.90
5899;DHT22;2975;50.956;6.962;2022-09-09T01:27:34;17.90;99.90
5899;DHT22;2975;50.956;6.962;2022-09-09T01:30:04;17.80;99.90
5899;DHT22;2975;50.956;6.962;2022-09-09T01:35:32;17.80;99.90
5899;DHT22;2975;50.956;6.962;2022-09-09T01:37:59;17.70;99.90
5899;DHT22;2975;50.956;6.962;2022-09-09T01:40:25;17.60;99.90
5899;DHT22;2975;50.956;6.962;2022-09-09T01:42:52;17.50;99.90
5899;DHT22;2975;50.956;6.962;2022-09-09T01:45:18;17.50;99.90
5899;DHT22;2975;50.956;6.962;2022-09-09T01:47:45;17.40;99.90
5899;DHT22;2975;50.956;6.962;2022-09-09T01:50:14;17.40;99.90
5899;DHT22;2975;50.956;6.962;2022-09-09T01:52:41;17.40;99.90
5899;DHT22;2975;50.956;6.962;2022-09-09T01:55:08;17.40;99.90
5899;DHT22;2975;50.956;6.962;2022-09-09T01:57:42;17.40;99.90
5899;DHT22;2975;50.956;6.962;2022-09-09T02:00:13;17.50;99.90
5899;DHT22;2975;50.956;6.962;2022-09-09T02:05:36;17.50;99.90
5899;DHT22;2975;50.956;6.962;2022-09-09T02:10:59;17.70;99.90
5899;DHT22;2975;50.956;6.962;2022-09-09T02:13:28;17.70;99.90
5899;DHT22;2975;50.956;6.962;2022-09-09T02:18:46;17.80;99.90
5899;DHT22;2975;50.956;6.962;2022-09-09T02:21:13;17.80;99.90
5899;DHT22;2975;50.956;6.962;2022-09-09T02:23:41;17.80;99.90
5899;DHT22;2975;50.956;6.962;2022-09-09T02:26:09;17.80;99.90
5899;DHT22;2975;50.956;6.962;2022-09-09T02:28:37;17.80;99.90
5899;DHT22;2975;50.956;6.962;2022-09-09T02:31:04;17.80;99.90
5899;DHT22;2975;50.956;6.962;2022-09-09T02:33:35;17.80;99.90
5899;DHT22;2975;50.956;6.962;2022-09-09T02:36:03;17.80;99.90
5899;DHT22;2975;50.956;6.962;2022-09-09T02:38:35;17.80;99.90
5899;DHT22;2975;50.956;6.962;2022-09-09T02:41:03;17.80;99.90
5899;DHT22;2975;50.956;6.962;2022-09-09T02:43:33;17.80;99.90
5899;DHT22;2975;50.956;6.962;2022-09-09T02:46:32;17.80;99.90
5899;DHT22;2975;50.956;6.962;2022-09-09T02:49:09;17.80;99.90
5899;DHT22;2975;50.956;6.962;2022-09-09T02:54:34;17.80;99.90
5899;DHT22;2975;50.956;6.962;2022-09-09T02:57:10;17.80;99.90
5899;DHT22;2975;50.956;6.962;2022-09-09T02:59:36;17.80;99.90
5899;DHT22;2975;50.956;6.962;2022-09-09T03:02:02;17.80;99.90
5899;DHT22;2975;50.956;6.962;2022-09-09T03:04:29;17.80;99.90
5899;DHT22;2975;50.956;6.962;2022-09-09T03:06:58;17.80;99.90
5899;DHT22;2975;50.956;6.962;2022-09-09T03:09:24;17.90;99.90
5899;DHT22;2975;50.956;6.962;2022-09-09T03:11:51;18.00;99.90
5899;DHT22;2975;50.956;6.962;2022-09-09T03:14:17;17.90;99.90
5899;DHT22;2975;50.956;6.962;2022-09-09T03:16:47;17.90;99.90
5899;DHT22;2975;50.956;6.962;2022-09-09T03:19:12;17.80;99.90
5899;DHT22;2975;50.956;6.962;2022-09-09T03:21:38;17.80;99.90
5899;DHT22;2975;50.956;6.962;2022-09-09T03:24:04;17.80;99.90
5899;DHT22;2975;50.956;6.962;2022-09-09T03:26:30;17.90;99.90
5899;DHT22;2975;50.956;6.962;2022-09-09T03:28:57;18.00;99.90
5899;DHT22;2975;50.956;6.962;2022-09-09T03:31:22;18.00;99.90
5899;DHT22;2975;50.956;6.962;2022-09-09T03:33:48;18.00;99.90
5899;DHT22;2975;50.956;6.962;2022-09-09T03:36:14;18.10;99.90
5899;DHT22;2975;50.956;6.962;2022-09-09T03:38:40;18.10;99.90
5899;DHT22;2975;50.956;6.962;2022-09-09T03:41:06;18.10;99.90
5899;DHT22;2975;50.956;6.962;2022-09-09T03:43:33;17.90;99.90
5899;DHT22;2975;50.956;6.962;2022-09-09T03:45:59;17.90;99.90
5899;DHT22;2975;50.956;6.962;2022-09-09T03:48:25;17.80;99.90
5899;DHT22;2975;50.956;6.962;2022-09-09T03:50:54;17.80;99.90
5899;DHT22;2975;50.956;6.962;2022-09-09T03:53:22;17.80;99.90
5899;DHT22;2975;50.956;6.962;2022-09-09T03:55:50;17.80;99.90
5899;DHT22;2975;50.956;6.962;2022-09-09T03:58:18;17.90;99.90
5899;DHT22;2975;50.956;6.962;2022-09-09T04:00:56;18.00;99.90
5899;DHT22;2975;50.956;6.962;2022-09-09T04:03:22;18.00;99.90
5899;DHT22;2975;50.956;6.962;2022-09-09T04:05:52;18.10;99.90
5899;DHT22;2975;50.956;6.962;2022-09-09T04:08:19;18.10;99.90
5899;DHT22;2975;50.956;6.962;2022-09-09T04:10:49;18.20;99.90
5899;DHT22;2975;50.956;6.962;2022-09-09T04:13:16;18.20;99.90
5899;DHT22;2975;50.956;6.962;2022-09-09T04:15:43;18.20;99.90
5899;DHT22;2975;50.956;6.962;2022-09-09T04:18:09;18.10;99.90
5899;DHT22;2975;50.956;6.962;2022-09-09T04:20:35;18.20;99.90
5899;DHT22;2975;50.956;6.962;2022-09-09T04:23:01;18.20;99.90
5899;DHT22;2975;50.956;6.962;2022-09-09T04:25:26;18.20;99.90
5899;DHT22;2975;50.956;6.962;2022-09-09T04:27:56;18.10;99.90
5899;DHT22;2975;50.956;6.962;2022-09-09T04:30:23;18.10;99.90
5899;DHT22;2975;50.956;6.962;2022-09-09T04:32:49;18.00;99.90
5899;DHT22;2975;50.956;6.962;2022-09-09T04:35:15;18.00;99.90
5899;DHT22;2975;50.956;6.962;2022-09-09T04:37:41;18.00;99.90
5899;DHT22;2975;50.956;6.962;2022-09-09T04:40:07;17.90;99.90
5899;DHT22;2975;50.956;6.962;2022-09-09T04:42:38;17.90;99.90
5899;DHT22;2975;50.956;6.962;2022-09-09T04:45:05;17.80;99.90
5899;DHT22;2975;50.956;6.962;2022-09-09T04:47:32;17.80;99.90
5899;DHT22;2975;50.956;6.962;2022-09-09T04:49:58;17.80;99.90
5899;DHT22;2975;50.956;6.962;2022-09-09T04:52:24;17.90;99.90
5899;DHT22;2975;50.956;6.962;2022-09-09T04:54:49;17.90;99.90
5899;DHT22;2975;50.956;6.962;2022-09-09T04:57:15;17.90;99.90
5899;DHT22;2975;50.956;6.962;2022-09-09T04:59:41;17.90;99.90
5899;DHT22;2975;50.956;6.962;2022-09-09T05:02:06;17.90;99.90
5899;DHT22;2975;50.956;6.962;2022-09-09T05:04:32;17.90;99.90
5899;DHT22;2975;50.956;6.962;2022-09-09T05:06:58;17.90;99.90
5899;DHT22;2975;50.956;6.962;2022-09-09T05:09:24;18.00;99.90
5899;DHT22;2975;50.956;6.962;2022-09-09T05:11:50;18.00;99.90
5899;DHT22;2975;50.956;6.962;2022-09-09T05:14:15;18.20;99.90
5899;DHT22;2975;50.956;6.962;2022-09-09T05:16:41;18.20;99.90
5899;DHT22;2975;50.956;6.962;2022-09-09T05:19:07;18.30;99.90
5899;DHT22;2975;50.956;6.962;2022-09-09T05:21:33;18.30;99.90
5899;DHT22;2975;50.956;6.962;2022-09-09T05:23:59;18.30;99.90
5899;DHT22;2975;50.956;6.962;2022-09-09T05:26:26;18.30;99.90
5899;DHT22;2975;50.956;6.962;2022-09-09T05:28:52;18.40;99.90
5899;DHT22;2975;50.956;6.962;2022-09-09T05:31:19;18.60;99.90
5899;DHT22;2975;50.956;6.962;2022-09-09T05:33:46;18.70;99.90
5899;DHT22;2975;50.956;6.962;2022-09-09T05:36:14;18.80;99.90
5899;DHT22;2975;50.956;6.962;2022-09-09T05:38:42;18.80;99.90
5899;DHT22;2975;50.956;6.962;2022-09-09T05:41:09;19.00;99.90
5899;DHT22;2975;50.956;6.962;2022-09-09T05:43:36;19.10;99.90
5899;DHT22;2975;50.956;6.962;2022-09-09T05:46:13;19.50;99.90
5899;DHT22;2975;50.956;6.962;2022-09-09T05:48:44;19.70;99.90
5899;DHT22;2975;50.956;6.962;2022-09-09T05:51:14;19.60;99.90
5899;DHT22;2975;50.956;6.962;2022-09-09T05:53:43;19.60;99.90
5899;DHT22;2975;50.956;6.962;2022-09-09T05:56:14;19.60;99.90
5899;DHT22;2975;50.956;6.962;2022-09-09T05:58:41;19.60;99.90
5899;DHT22;2975;50.956;6.962;2022-09-09T06:01:14;19.70;99.90
5899;DHT22;2975;50.956;6.962;2022-09-09T06:03:42;19.70;99.90
5899;DHT22;2975;50.956;6.962;2022-09-09T06:06:11;19.70;99.90
5899;DHT22;2975;50.956;6.962;2022-09-09T06:08:40;19.60;99.90
5899;DHT22;2975;50.956;6.962;2022-09-09T06:13:37;19.70;99.90
5899;DHT22;2975;50.956;6.962;2022-09-09T06:16:05;19.80;99.90
5899;DHT22;2975;50.956;6.962;2022-09-09T06:18:32;19.80;99.90
5899;DHT22;2975;50.956;6.962;2022-09-09T06:21:00;19.80;99.90
5899;DHT22;2975;50.956;6.962;2022-09-09T06:23:27;19.80;99.90
5899;DHT22;2975;50.956;6.962;2022-09-09T06:26:06;19.90;99.90
5899;DHT22;2975;50.956;6.962;2022-09-09T06:28:33;19.90;99.90
5899;DHT22;2975;50.956;6.962;2022-09-09T06:31:04;19.90;99.90
5899;DHT22;2975;50.956;6.962;2022-09-09T06:33:32;19.90;99.90
5899;DHT22;2975;50.956;6.962;2022-09-09T06:36:00;19.90;99.90
5899;DHT22;2975;50.956;6.962;2022-09-09T06:38:27;19.70;99.90
5899;DHT22;2975;50.956;6.962;2022-09-09T06:40:58;19.60;99.90
5899;DHT22;2975;50.956;6.962;2022-09-09T06:43:27;19.50;99.90
5899;DHT22;2975;50.956;6.962;2022-09-09T06:45:58;19.50;99.90
5899;DHT22;2975;50.956;6.962;2022-09-09T06:48:24;19.50;99.90
5899;DHT22;2975;50.956;6.962;2022-09-09T06:51:10;19.60;99.90
5899;DHT22;2975;50.956;6.962;2022-09-09T06:53:37;19.50;99.90
5899;DHT22;2975;50.956;6.962;2022-09-09T06:58:45;19.30;99.90
5899;DHT22;2975;50.956;6.962;2022-09-09T07:01:15;19.30;99.90
5899;DHT22;2975;50.956;6.962;2022-09-09T07:03:42;19.40;99.90
5899;DHT22;2975;50.956;6.962;2022-09-09T07:06:20;19.50;99.90
5899;DHT22;2975;50.956;6.962;2022-09-09T07:08:50;19.50;99.90
5899;DHT22;2975;50.956;6.962;2022-09-09T07:11:16;19.60;99.90
5899;DHT22;2975;50.956;6.962;2022-09-09T07:13:42;19.80;99.90
5899;DHT22;2975;50.956;6.962;2022-09-09T07:16:10;19.90;99.90
5899;DHT22;2975;50.956;6.962;2022-09-09T07:18:36;19.90;99.90
5899;DHT22;2975;50.956;6.962;2022-09-09T07:21:03;19.80;99.90
5899;DHT22;2975;50.956;6.962;2022-09-09T07:23:30;19.80;99.90
5899;DHT22;2975;50.956;6.962;2022-09-09T07:25:56;19.90;99.90
5899;DHT22;2975;50.956;6.962;2022-09-09T07:28:23;20.10;99.70
5899;DHT22;2975;50.956;6.962;2022-09-09T07:31:02;20.10;99.50
5899;DHT22;2975;50.956;6.962;2022-09-09T07:33:29;20.10;98.90
5899;DHT22;2975;50.956;6.962;2022-09-09T07:36:14;20.00;98.90
5899;DHT22;2975;50.956;6.962;2022-09-09T07:38:48;20.00;98.80
5899;DHT22;2975;50.956;6.962;2022-09-09T07:41:18;20.00;98.50
5899;DHT22;2975;50.956;6.962;2022-09-09T07:43:46;20.10;98.50
5899;DHT22;2975;50.956;6.962;2022-09-09T07:46:14;20.10;98.70
5899;DHT22;2975;50.956;6.962;2022-09-09T07:48:48;20.30;98.10
5899;DHT22;2975;50.956;6.962;2022-09-09T07:51:28;20.40;97.80
5899;DHT22;2975;50.956;6.962;2022-09-09T07:53:56;20.60;97.60
5899;DHT22;2975;50.956;6.962;2022-09-09T07:56:23;20.80;97.60
5899;DHT22;2975;50.956;6.962;2022-09-09T07:58:50;21.00;96.90
5899;DHT22;2975;50.956;6.962;2022-09-09T08:03:59;21.40;95.70
5899;DHT22;2975;50.956;6.962;2022-09-09T08:06:27;21.60;95.00
5899;DHT22;2975;50.956;6.962;2022-09-09T08:08:53;21.70;94.70
5899;DHT22;2975;50.956;6.962;2022-09-09T08:11:21;21.70;94.30
5899;DHT22;2975;50.956;6.962;2022-09-09T08:13:49;21.60;93.70
5899;DHT22;2975;50.956;6.962;2022-09-09T08:16:20;21.50;93.70
5899;DHT22;2975;50.956;6.962;2022-09-09T08:18:48;21.60;93.90
5899;DHT22;2975;50.956;6.962;2022-09-09T08:21:17;21.60;93.90
5899;DHT22;2975;50.956;6.962;2022-09-09T08:23:44;21.50;94.00
5899;DHT22;2975;50.956;6.962;2022-09-09T08:26:19;21.40;94.20
5899;DHT22;2975;50.956;6.962;2022-09-09T08:28:48;21.30;93.90
5899;DHT22;2975;50.956;6.962;2022-09-09T08:31:26;21.30;94.00
5899;DHT22;2975;50.956;6.962;2022-09-09T08:33:56;21.40;93.80
5899;DHT22;2975;50.956;6.962;2022-09-09T08:36:24;21.50;93.50
5899;DHT22;2975;50.956;6.962;2022-09-09T08:38:52;21.60;93.40
5899;DHT22;2975;50.956;6.962;2022-09-09T08:44:23;22.20;92.70
5899;DHT22;2975;50.956;6.962;2022-09-09T08:47:06;22.60;92.10
5899;DHT22;2975;50.956;6.962;2022-09-09T08:52:14;22.60;91.50
5899;DHT22;2975;50.956;6.962;2022-09-09T08:54:41;22.70;91.20
5899;DHT22;2975;50.956;6.962;2022-09-09T08:57:13;22.70;90.20
5899;DHT22;2975;50.956;6.962;2022-09-09T08:59:39;22.60;90.10
5899;DHT22;2975;50.956;6.962;2022-09-09T09:02:16;22.40;90.80
5899;DHT22;2975;50.956;6.962;2022-09-09T09:05:09;22.30;90.50
5899;DHT22;2975;50.956;6.962;2022-09-09T09:12:53;22.80;89.00
5899;DHT22;2975;50.956;6.962;2022-09-09T09:15:30;22.90;90.20
5899;DHT22;2975;50.956;6.962;2022-09-09T09:17:56;23.10;88.00
5899;DHT22;2975;50.956;6.962;2022-09-09T09:20:47;23.20;88.40
5899;DHT22;2975;50.956;6.962;2022-09-09T09:23:22;23.20;87.70
5899;DHT22;2975;50.956;6.962;2022-09-09T09:25:48;23.00;90.30
5899;DHT22;2975;50.956;6.962;2022-09-09T09:28:26;23.00;88.40
5899;DHT22;2975;50.956;6.962;2022-09-09T09:31:01;22.90;89.10
5899;DHT22;2975;50.956;6.962;2022-09-09T09:33:55;22.60;89.40
5899;DHT22;2975;50.956;6.962;2022-09-09T09:36:32;22.20;90.20
5899;DHT22;2975;50.956;6.962;2022-09-09T09:39:00;22.10;91.20
5899;DHT22;2975;50.956;6.962;2022-09-09T09:41:38;22.00;91.70
5899;DHT22;2975;50.956;6.962;2022-09-09T09:44:29;21.90;90.80
5899;DHT22;2975;50.956;6.962;2022-09-09T09:47:04;21.90;91.00
5899;DHT22;2975;50.956;6.962;2022-09-09T09:49:30;22.10;91.00
5899;DHT22;2975;50.956;6.962;2022-09-09T09:52:01;22.30;90.70
5899;DHT22;2975;50.956;6.962;2022-09-09T09:54:29;22.50;90.50
5899;DHT22;2975;50.956;6.962;2022-09-09T09:56:55;22.60;93.30
5899;DHT22;2975;50.956;6.962;2022-09-09T10:01:53;22.80;92.20
5899;DHT22;2975;50.956;6.962;2022-09-09T10:04:21;23.00;91.80
5899;DHT22;2975;50.956;6.962;2022-09-09T10:06:49;23.20;91.20
5899;DHT22;2975;50.956;6.962;2022-09-09T10:09:34;23.30;90.40
5899;DHT22;2975;50.956;6.962;2022-09-09T10:26:07;22.90;88.90
5899;DHT22;2975;50.956;6.962;2022-09-09T10:28:55;22.70;88.20
5899;DHT22;2975;50.956;6.962;2022-09-09T10:37:04;22.10;90.10
5899;DHT22;2975;50.956;6.962;2022-09-09T10:39:36;22.00;90.40
5899;DHT22;2975;50.956;6.962;2022-09-09T10:42:16;22.10;90.50
5899;DHT22;2975;50.956;6.962;2022-09-09T10:47:41;22.80;90.60
5899;DHT22;2975;50.956;6.962;2022-09-09T10:55:27;23.50;91.20
5899;DHT22;2975;50.956;6.962;2022-09-09T10:57:58;23.70;89.80
5899;DHT22;2975;50.956;6.962;2022-09-09T11:00:40;23.70;90.00
5899;DHT22;2975;50.956;6.962;2022-09-09T11:03:49;24.00;90.50
5899;DHT22;2975;50.956;6.962;2022-09-09T11:06:14;24.00;87.20
5899;DHT22;2975;50.956;6.962;2022-09-09T11:08:40;24.10;87.90
5899;DHT22;2975;50.956;6.962;2022-09-09T11:11:39;24.30;87.10
5899;DHT22;2975;50.956;6.962;2022-09-09T11:17:05;24.30;84.50
5899;DHT22;2975;50.956;6.962;2022-09-09T11:19:41;24.30;85.70
5899;DHT22;2975;50.956;6.962;2022-09-09T11:25:08;24.70;83.10
5899;DHT22;2975;50.956;6.962;2022-09-09T11:38:46;23.60;84.60
5899;DHT22;2975;50.956;6.962;2022-09-09T11:41:13;23.60;84.20
5899;DHT22;2975;50.956;6.962;2022-09-09T11:43:45;23.70;84.10
5899;DHT22;2975;50.956;6.962;2022-09-09T11:46:14;23.70;83.20
5899;DHT22;2975;50.956;6.962;2022-09-09T11:48:41;23.60;85.00
5899;DHT22;2975;50.956;6.962;2022-09-09T11:51:33;23.80;87.90
5899;DHT22;2975;50.956;6.962;2022-09-09T11:54:33;24.00;85.50
5899;DHT22;2975;50.956;6.962;2022-09-09T11:57:36;24.20;84.40
5899;DHT22;2975;50.956;6.962;2022-09-09T12:00:03;24.30;82.00
5899;DHT22;2975;50.956;6.962;2022-09-09T12:02:29;24.20;82.40
5899;DHT22;2975;50.956;6.962;2022-09-09T12:07:39;24.10;83.20
5899;DHT22;2975;50.956;6.962;2022-09-09T12:12:38;23.80;83.00
5899;DHT22;2975;50.956;6.962;2022-09-09T12:17:50;23.40;82.60
5899;DHT22;2975;50.956;6.962;2022-09-09T12:20:22;23.10;83.10
5899;DHT22;2975;50.956;6.962;2022-09-09T12:28:44;23.10;86.10
5899;DHT22;2975;50.956;6.962;2022-09-09T12:31:16;23.50;83.90
5899;DHT22;2975;50.956;6.962;2022-09-09T12:33:44;23.80;84.40
5899;DHT22;2975;50.956;6.962;2022-09-09T12:36:19;24.00;83.60
5899;DHT22;2975;50.956;6.962;2022-09-09T12:38:45;24.10;82.20
5899;DHT22;2975;50.956;6.962;2022-09-09T12:41:19;24.00;82.10
5899;DHT22;2975;50.956;6.962;2022-09-09T12:43:46;24.00;82.70
5899;DHT22;2975;50.956;6.962;2022-09-09T12:46:21;23.80;83.20
5899;DHT22;2975;50.956;6.962;2022-09-09T12:48:48;23.50;83.00
5899;DHT22;2975;50.956;6.962;2022-09-09T12:51:29;23.30;83.80
5899;DHT22;2975;50.956;6.962;2022-09-09T12:53:56;23.20;84.40
5899;DHT22;2975;50.956;6.962;2022-09-09T12:56:24;23.10;84.80
5899;DHT22;2975;50.956;6.962;2022-09-09T12:58:56;23.10;84.30
5899;DHT22;2975;50.956;6.962;2022-09-09T13:03:55;23.60;85.20
5899;DHT22;2975;50.956;6.962;2022-09-09T13:06:28;23.90;84.70
5899;DHT22;2975;50.956;6.962;2022-09-09T13:08:56;24.30;83.60
5899;DHT22;2975;50.956;6.962;2022-09-09T13:11:26;24.40;82.70
5899;DHT22;2975;50.956;6.962;2022-09-09T13:13:56;24.30;82.30
5899;DHT22;2975;50.956;6.962;2022-09-09T13:16:26;24.00;83.50
5899;DHT22;2975;50.956;6.962;2022-09-09T13:18:52;23.30;87.00
5899;DHT22;2975;50.956;6.962;2022-09-09T13:21:19;22.90;88.50
5899;DHT22;2975;50.956;6.962;2022-09-09T13:23:49;22.90;89.20
5899;DHT22;2975;50.956;6.962;2022-09-09T13:26:25;23.00;90.00
5899;DHT22;2975;50.956;6.962;2022-09-09T13:28:53;22.90;90.10
5899;DHT22;2975;50.956;6.962;2022-09-09T13:31:27;22.90;90.20
5899;DHT22;2975;50.956;6.962;2022-09-09T13:33:53;22.90;90.20
5899;DHT22;2975;50.956;6.962;2022-09-09T13:36:28;23.00;88.50
5899;DHT22;2975;50.956;6.962;2022-09-09T13:38:56;23.20;88.70
5899;DHT22;2975;50.956;6.962;2022-09-09T13:41:32;23.30;87.40
5899;DHT22;2975;50.956;6.962;2022-09-09T13:43:59;23.50;86.80
5899;DHT22;2975;50.956;6.962;2022-09-09T13:46:39;23.80;86.90
5899;DHT22;2975;50.956;6.962;2022-09-09T13:54:05;24.00;86.00
5899;DHT22;2975;50.956;6.962;2022-09-09T13:56:36;24.10;85.70
5899;DHT22;2975;50.956;6.962;2022-09-09T13:59:03;24.40;85.00
5899;DHT22;2975;50.956;6.962;2022-09-09T14:01:29;24.50;84.30
5899;DHT22;2975;50.956;6.962;2022-09-09T14:03:55;24.30;83.50
5899;DHT22;2975;50.956;6.962;2022-09-09T14:06:21;24.10;83.60
5899;DHT22;2975;50.956;6.962;2022-09-09T14:08:50;23.90;84.90
5899;DHT22;2975;50.956;6.962;2022-09-09T14:11:16;23.60;85.50
5899;DHT22;2975;50.956;6.962;2022-09-09T14:13:42;23.50;86.10
5899;DHT22;2975;50.956;6.962;2022-09-09T14:16:08;23.40;87.10
5899;DHT22;2975;50.956;6.962;2022-09-09T14:18:33;23.30;87.60
5899;DHT22;2975;50.956;6.962;2022-09-09T14:20:59;23.20;88.00
5899;DHT22;2975;50.956;6.962;2022-09-09T14:23:25;22.90;89.30
5899;DHT22;2975;50.956;6.962;2022-09-09T14:25:51;22.60;90.60
5899;DHT22;2975;50.956;6.962;2022-09-09T14:28:17;22.30;90.70
5899;DHT22;2975;50.956;6.962;2022-09-09T14:30:43;22.10;90.80
5899;DHT22;2975;50.956;6.962;2022-09-09T14:33:14;21.90;91.00
5899;DHT22;2975;50.956;6.962;2022-09-09T14:35:40;21.80;91.30
5899;DHT22;2975;50.956;6.962;2022-09-09T14:38:07;21.50;93.60
5899;DHT22;2975;50.956;6.962;2022-09-09T14:40:37;21.10;96.10
5899;DHT22;2975;50.956;6.962;2022-09-09T14:43:04;20.80;99.40
5899;DHT22;2975;50.956;6.962;2022-09-09T14:45:31;20.50;99.90
5899;DHT22;2975;50.956;6.962;2022-09-09T14:47:56;20.10;99.90
5899;DHT22;2975;50.956;6.962;2022-09-09T14:50:23;19.90;99.90
5899;DHT22;2975;50.956;6.962;2022-09-09T14:52:49;19.80;99.90
5899;DHT22;2975;50.956;6.962;2022-09-09T14:55:16;19.70;99.90
5899;DHT22;2975;50.956;6.962;2022-09-09T14:57:42;19.60;99.90
5899;DHT22;2975;50.956;6.962;2022-09-09T15:00:09;19.80;99.90
5899;DHT22;2975;50.956;6.962;2022-09-09T15:02:35;19.90;99.90
5899;DHT22;2975;50.956;6.962;2022-09-09T15:05:01;20.00;99.90
5899;DHT22;2975;50.956;6.962;2022-09-09T15:07:27;20.10;99.90
5899;DHT22;2975;50.956;6.962;2022-09-09T15:09:54;20.20;99.90
5899;DHT22;2975;50.956;6.962;2022-09-09T15:12:20;20.40;99.90
5899;DHT22;2975;50.956;6.962;2022-09-09T15:14:46;20.50;99.90
5899;DHT22;2975;50.956;6.962;2022-09-09T15:17:12;20.70;99.90
5899;DHT22;2975;50.956;6.962;2022-09-09T15:19:38;20.90;99.90
5899;DHT22;2975;50.956;6.962;2022-09-09T15:22:04;21.00;99.90
5899;DHT22;2975;50.956;6.962;2022-09-09T15:24:31;21.00;99.90
5899;DHT22;2975;50.956;6.962;2022-09-09T15:26:57;21.10;99.90
5899;DHT22;2975;50.956;6.962;2022-09-09T15:29:23;21.10;99.90
5899;DHT22;2975;50.956;6.962;2022-09-09T15:31:49;21.10;99.90
5899;DHT22;2975;50.956;6.962;2022-09-09T15:34:14;21.10;99.90
5899;DHT22;2975;50.956;6.962;2022-09-09T15:36:42;21.20;99.90
5899;DHT22;2975;50.956;6.962;2022-09-09T15:39:10;21.30;99.90
5899;DHT22;2975;50.956;6.962;2022-09-09T15:41:41;21.30;99.90
5899;DHT22;2975;50.956;6.962;2022-09-09T15:44:08;21.10;99.90
5899;DHT22;2975;50.956;6.962;2022-09-09T15:46:40;21.00;99.90
5899;DHT22;2975;50.956;6.962;2022-09-09T15:49:07;20.90;99.90
5899;DHT22;2975;50.956;6.962;2022-09-09T15:51:34;20.90;99.90
5899;DHT22;2975;50.956;6.962;2022-09-09T15:54:00;20.90;99.90
5899;DHT22;2975;50.956;6.962;2022-09-09T15:56:28;20.90;99.90
5899;DHT22;2975;50.956;6.962;2022-09-09T15:58:56;20.80;99.90
5899;DHT22;2975;50.956;6.962;2022-09-09T16:01:23;20.90;99.90
5899;DHT22;2975;50.956;6.962;2022-09-09T16:03:49;20.80;99.90
5899;DHT22;2975;50.956;6.962;2022-09-09T16:06:18;20.80;99.90
5899;DHT22;2975;50.956;6.962;2022-09-09T16:08:45;20.80;99.90
5899;DHT22;2975;50.956;6.962;2022-09-09T16:11:14;20.70;99.90
5899;DHT22;2975;50.956;6.962;2022-09-09T16:13:42;20.70;99.90
5899;DHT22;2975;50.956;6.962;2022-09-09T16:16:11;20.50;99.90
5899;DHT22;2975;50.956;6.962;2022-09-09T16:18:39;20.40;99.90
5899;DHT22;2975;50.956;6.962;2022-09-09T16:21:06;20.40;99.90
5899;DHT22;2975;50.956;6.962;2022-09-09T16:23:34;20.40;99.90
5899;DHT22;2975;50.956;6.962;2022-09-09T16:26:00;20.30;99.90
5899;DHT22;2975;50.956;6.962;2022-09-09T16:28:26;20.10;99.90
5899;DHT22;2975;50.956;6.962;2022-09-09T16:30:52;20.10;99.90
5899;DHT22;2975;50.956;6.962;2022-09-09T16:33:18;20.00;99.90
5899;DHT22;2975;50.956;6.962;2022-09-09T16:35:44;19.90;99.90
5899;DHT22;2975;50.956;6.962;2022-09-09T16:38:10;20.00;99.90
5899;DHT22;2975;50.956;6.962;2022-09-09T16:40:39;20.00;99.90
5899;DHT22;2975;50.956;6.962;2022-09-09T16:43:07;20.00;99.90
5899;DHT22;2975;50.956;6.962;2022-09-09T16:45:33;20.10;99.90
5899;DHT22;2975;50.956;6.962;2022-09-09T16:48:01;20.10;99.90
5899;DHT22;2975;50.956;6.962;2022-09-09T16:50:26;20.20;99.90
5899;DHT22;2975;50.956;6.962;2022-09-09T16:52:52;20.30;99.90
5899;DHT22;2975;50.956;6.962;2022-09-09T16:55:18;20.40;99.90
5899;DHT22;2975;50.956;6.962;2022-09-09T16:57:46;20.50;99.90
5899;DHT22;2975;50.956;6.962;2022-09-09T17:00:14;20.50;99.90
5899;DHT22;2975;50.956;6.962;2022-09-09T17:02:40;20.50;99.90
5899;DHT22;2975;50.956;6.962;2022-09-09T17:05:06;20.40;99.90
5899;DHT22;2975;50.956;6.962;2022-09-09T17:07:31;20.40;99.90
5899;DHT22;2975;50.956;6.962;2022-09-09T17:09:57;20.40;99.90
5899;DHT22;2975;50.956;6.962;2022-09-09T17:12:23;20.20;99.90
5899;DHT22;2975;50.956;6.962;2022-09-09T17:14:49;20.10;99.90
5899;DHT22;2975;50.956;6.962;2022-09-09T17:17:15;20.10;99.90
5899;DHT22;2975;50.956;6.962;2022-09-09T17:19:42;19.80;99.90
5899;DHT22;2975;50.956;6.962;2022-09-09T17:22:08;19.60;99.90
5899;DHT22;2975;50.956;6.962;2022-09-09T17:24:34;19.50;99.90
5899;DHT22;2975;50.956;6.962;2022-09-09T17:27:00;19.40;99.90
5899;DHT22;2975;50.956;6.962;2022-09-09T17:29:26;19.20;99.90
5899;DHT22;2975;50.956;6.962;2022-09-09T17:31:52;19.10;99.90
5899;DHT22;2975;50.956;6.962;2022-09-09T17:34:18;19.00;99.90
5899;DHT22;2975;50.956;6.962;2022-09-09T17:36:44;19.00;99.90
5899;DHT22;2975;50.956;6.962;2022-09-09T17:39:09;18.90;99.90
5899;DHT22;2975;50.956;6.962;2022-09-09T17:41:39;18.80;99.90
5899;DHT22;2975;50.956;6.962;2022-09-09T17:44:08;18.90;99.90
5899;DHT22;2975;50.956;6.962;2022-09-09T17:46:36;18.80;99.90
5899;DHT22;2975;50.956;6.962;2022-09-09T17:49:04;18.80;99.90
5899;DHT22;2975;50.956;6.962;2022-09-09T17:51:31;18.70;99.90
5899;DHT22;2975;50.956;6.962;2022-09-09T17:53:59;18.60;99.90
5899;DHT22;2975;50.956;6.962;2022-09-09T17:56:27;18.60;99.90
5899;DHT22;2975;50.956;6.962;2022-09-09T17:58:56;18.60;99.90
5899;DHT22;2975;50.956;6.962;2022-09-09T18:01:26;18.50;99.90
5899;DHT22;2975;50.956;6.962;2022-09-09T18:03:54;18.50;99.90
5899;DHT22;2975;50.956;6.962;2022-09-09T18:06:23;18.50;99.90
5899;DHT22;2975;50.956;6.962;2022-09-09T18:08:57;18.50;99.90
5899;DHT22;2975;50.956;6.962;2022-09-09T18:11:25;18.40;99.90
5899;DHT22;2975;50.956;6.962;2022-09-09T18:14:01;18.50;99.90
5899;DHT22;2975;50.956;6.962;2022-09-09T18:16:30;18.40;99.90
5899;DHT22;2975;50.956;6.962;2022-09-09T18:18:57;18.40;99.90
5899;DHT22;2975;50.956;6.962;2022-09-09T18:21:23;18.40;99.90
5899;DHT22;2975;50.956;6.962;2022-09-09T18:23:50;18.40;99.90
5899;DHT22;2975;50.956;6.962;2022-09-09T18:26:25;18.40;99.90
5899;DHT22;2975;50.956;6.962;2022-09-09T18:28:53;18.30;99.90